メインページ
METAR-TAF:

METAR-TAF

空港 :

アデレード空港

アデレード, オーストラリア

緯度: 34-56S, 経度: 138-31E, 海抜: 6m

現時点の気象観測

当レポートは20分前の04:00(UTC)に作成
西/南西の風 14kt
気温 17°C
湿度 52%
気圧 1020 hPa
視程10km以上
高度3500ftの雲はほとんどない

METAR: YPAD 200400Z 24014KT 9999 FEW035 17/07 Q1020 NOSIG

時間: 14:50 (04:20 UTC)

予報

当レポートは5時間13分前の23:07(UTC)に作成
予報は20日の 00時(UTC)から 21日の 06時(UTC)まで有効
南西の風 12kt
視程10km以上
高度4000ftの雲はほとんどない
20日の 1200時(UTC)から
東/南東の風 8kt
視程10km以上
1,500メートル以下は雲なし、積乱雲なし
20日の 1600時(UTC)から
北東の風 6kt
視程10km以上
1,500メートル以下は雲なし、積乱雲なし
20日の 2300時(UTC)から
北/北西の風 10kt
視程10km以上
1,500メートル以下は雲なし、積乱雲なし
21日の 0200時(UTC)から
西/北西の風 8kt
視程10km以上
1,500メートル以下は雲なし、積乱雲なし

TAF: YPAD 192307Z 2000/2106 22012KT 9999 NSW FEW040 FM201200 12008KT CAVOK FM201600 05006KT CAVOK FM202300 34010KT CAVOK FM210200 29008KT CAVOK

4,000以上の空港の気象観測と天気予報(METAR報とTAF報)

利用可能な観測所は地図上に黄色い丸と赤い丸で示す。

丸の上にカーソルを重ねると観測所名を参照できる。

次にクリックすると気象観測と天気予報を参照できる。

マップの切り替え:黒色「×」印の緑ボタンをクリックして拡大、「-」印の緑ボタンをクリックして縮小、緑色の三角印をクリックして隣りの地図に切り替え


METAR-TAF: